createdAt,value
2022-12-13T00:01:50.184Z,20.41
2022-12-13T00:06:54.411Z,20.43
2022-12-13T00:11:58.607Z,20.41
2022-12-13T00:17:01.491Z,20.42
2022-12-13T00:22:04.245Z,20.40
2022-12-13T00:27:08.375Z,20.34
2022-12-13T00:32:11.248Z,20.42
2022-12-13T00:37:14.044Z,20.42
2022-12-13T00:42:18.147Z,20.41
2022-12-13T00:47:22.267Z,20.38
2022-12-13T00:52:25.097Z,20.40
2022-12-13T00:57:29.402Z,20.42
2022-12-13T01:02:32.211Z,20.40
2022-12-13T01:07:35.015Z,20.39
2022-12-13T01:12:39.249Z,20.29
2022-12-13T01:17:42.028Z,20.19
2022-12-13T01:22:44.909Z,20.11
2022-12-13T01:27:48.989Z,20.07
2022-12-13T01:32:51.774Z,20.03
2022-12-13T01:37:55.653Z,20.05
2022-12-13T01:43:03.224Z,20.04
2022-12-13T01:48:18.668Z,20.19
2022-12-13T01:53:22.792Z,20.11
2022-12-13T01:58:26.944Z,20.02
2022-12-13T02:03:29.756Z,19.97
2022-12-13T02:08:36.067Z,19.95
2022-12-13T02:13:40.851Z,19.97
2022-12-13T02:18:55.418Z,20.01
2022-12-13T02:24:20.744Z,19.86
2022-12-13T02:29:52.400Z,19.79
2022-12-13T02:34:58.897Z,19.73
2022-12-13T02:40:04.346Z,19.69
2022-12-13T02:45:08.862Z,19.64
2022-12-13T02:50:13.728Z,19.58
2022-12-13T02:55:17.134Z,19.56
2022-12-13T03:00:22.024Z,19.52
2022-12-13T03:05:46.266Z,19.46
2022-12-13T03:10:53.297Z,19.39
2022-12-13T03:15:57.684Z,19.33
2022-12-13T03:21:03.323Z,19.30
2022-12-13T03:26:08.188Z,19.24
2022-12-13T03:31:11.325Z,19.19
2022-12-13T03:36:15.601Z,19.13
2022-12-13T03:41:19.469Z,19.10
2022-12-13T03:46:22.271Z,19.04
2022-12-13T03:51:26.478Z,18.99
2022-12-13T03:56:29.346Z,18.95
2022-12-13T04:01:32.273Z,18.91
2022-12-13T04:06:36.453Z,18.86
2022-12-13T04:11:56.870Z,18.81
2022-12-13T04:16:59.635Z,18.79
2022-12-13T04:22:03.834Z,18.71
2022-12-13T04:27:06.661Z,18.69
2022-12-13T04:32:26.929Z,18.68
2022-12-13T04:37:31.679Z,18.64
2022-12-13T04:42:34.453Z,18.61
2022-12-13T04:47:37.177Z,18.59
2022-12-13T04:52:41.336Z,18.55
2022-12-13T04:57:44.126Z,18.53
2022-12-13T05:02:46.936Z,18.49
2022-12-13T05:07:51.187Z,18.45
2022-12-13T05:12:54.020Z,18.39
2022-12-13T05:17:56.809Z,18.36
2022-12-13T05:23:00.999Z,18.34
2022-12-13T05:28:09.069Z,18.28
2022-12-13T05:33:26.902Z,18.26
2022-12-13T05:38:31.169Z,18.23
2022-12-13T05:43:42.110Z,18.21
2022-12-13T05:48:46.406Z,18.20
2022-12-13T05:53:53.418Z,18.19
2022-12-13T05:58:56.575Z,18.16
2022-12-13T06:03:59.419Z,18.14
2022-12-13T06:09:03.798Z,18.11
2022-12-13T06:14:06.694Z,18.10
2022-12-13T06:19:25.937Z,18.10
2022-12-13T06:24:30.050Z,18.07
2022-12-13T06:29:32.795Z,18.08
2022-12-13T06:34:36.548Z,18.06
2022-12-13T06:39:41.014Z,18.04
2022-12-13T06:44:44.142Z,18.01
2022-12-13T06:49:47.160Z,17.99
2022-12-13T06:54:54.235Z,17.99
2022-12-13T07:00:03.460Z,17.98
2022-12-13T07:05:07.141Z,17.96
2022-12-13T07:10:12.535Z,17.94
2022-12-13T07:15:25.224Z,17.90
2022-12-13T07:20:28.022Z,17.90
2022-12-13T07:25:32.377Z,17.88
2022-12-13T07:30:41.115Z,17.88
2022-12-13T07:35:44.610Z,17.87
2022-12-13T07:40:48.999Z,17.85
2022-12-13T07:45:51.919Z,17.85
2022-12-13T07:50:54.957Z,17.84
2022-12-13T07:55:59.252Z,17.83
2022-12-13T08:01:03.104Z,17.83
2022-12-13T08:06:07.978Z,14.93
2022-12-13T08:11:12.777Z,11.63
2022-12-13T08:16:28.073Z,13.58
2022-12-13T08:27:01.906Z,16.18
2022-12-13T08:32:05.105Z,16.73
2022-12-13T08:37:07.885Z,17.14
2022-12-13T08:42:15.989Z,17.51
2022-12-13T08:47:22.570Z,17.84
2022-12-13T08:52:27.755Z,18.09
2022-12-13T08:57:31.885Z,18.27
2022-12-13T09:02:37.968Z,18.45
2022-12-13T09:07:43.002Z,18.62
2022-12-13T09:12:47.555Z,18.73
2022-12-13T09:17:52.360Z,18.82
2022-12-13T09:23:01.989Z,18.96
2022-12-13T09:28:08.297Z,19.02
2022-12-13T09:33:28.716Z,19.05
2022-12-13T09:38:35.774Z,19.19
2022-12-13T09:43:42.621Z,19.27
2022-12-13T09:48:48.386Z,19.33
2022-12-13T09:53:52.512Z,19.43
2022-12-13T09:58:57.184Z,19.49
2022-12-13T10:04:00.644Z,19.53
2022-12-13T10:09:03.408Z,19.57
2022-12-13T10:14:10.141Z,19.69
2022-12-13T10:19:28.868Z,19.79
2022-12-13T10:24:49.169Z,19.85
2022-12-13T10:30:00.488Z,19.90
2022-12-13T10:35:11.197Z,19.91
2022-12-13T10:40:32.058Z,19.96
2022-12-13T10:45:37.395Z,19.95
2022-12-13T10:50:40.520Z,19.87
2022-12-13T10:55:43.734Z,19.88
2022-12-13T11:00:49.319Z,19.85
2022-12-13T11:05:52.183Z,19.85
2022-12-13T11:10:59.400Z,19.77
2022-12-13T11:16:03.771Z,19.76
2022-12-13T11:21:07.786Z,19.72
2022-12-13T11:26:12.507Z,19.71
2022-12-13T11:31:17.539Z,19.76
2022-12-13T11:36:25.411Z,19.84
2022-12-13T11:41:32.571Z,19.91
2022-12-13T11:46:39.691Z,20.00
2022-12-13T11:51:44.139Z,20.08
2022-12-13T11:56:46.893Z,20.15
2022-12-13T12:01:52.749Z,20.20
2022-12-13T12:07:04.905Z,20.21
2022-12-13T12:12:22.166Z,20.34
2022-12-13T12:17:27.673Z,20.37
2022-12-13T12:22:36.186Z,20.36
2022-12-13T12:27:41.553Z,20.29
2022-12-13T12:32:50.282Z,20.32
2022-12-13T12:37:54.603Z,20.20
2022-12-13T12:43:16.269Z,20.27
2022-12-13T12:49:00.570Z,20.22
2022-12-13T12:54:12.837Z,20.18
2022-12-13T12:59:19.022Z,19.98
2022-12-13T13:04:26.047Z,19.94
2022-12-13T13:09:28.935Z,20.01
2022-12-13T13:14:32.998Z,15.91
2022-12-13T13:19:47.655Z,15.28
2022-12-13T13:24:59.617Z,17.08
2022-12-13T13:30:06.447Z,18.08
2022-12-13T13:35:50.993Z,18.63
2022-12-13T13:40:55.767Z,18.96
2022-12-13T13:46:00.540Z,19.20
2022-12-13T13:51:26.883Z,19.39
2022-12-13T13:56:50.077Z,19.53
2022-12-13T14:02:05.654Z,19.64
2022-12-13T14:07:56.291Z,19.82
2022-12-13T14:13:28.846Z,19.87
2022-12-13T14:19:20.385Z,19.97
2022-12-13T14:24:29.302Z,19.98
2022-12-13T14:29:34.620Z,19.93
2022-12-13T14:34:37.363Z,19.87
2022-12-13T14:39:45.018Z,19.88
2022-12-13T14:44:49.168Z,19.86
2022-12-13T14:49:55.414Z,19.86
2022-12-13T14:54:59.482Z,19.83
2022-12-13T15:00:22.791Z,19.79
2022-12-13T15:05:28.532Z,19.80
2022-12-13T15:10:34.369Z,19.94
2022-12-13T15:15:38.535Z,20.02
2022-12-13T15:20:42.025Z,20.05
2022-12-13T15:25:53.771Z,20.04
2022-12-13T15:30:58.199Z,20.00
2022-12-13T15:36:04.462Z,19.95
2022-12-13T15:41:07.771Z,19.89
2022-12-13T15:46:12.617Z,19.78
2022-12-13T15:51:29.054Z,19.71
2022-12-13T15:56:34.481Z,19.66
2022-12-13T16:01:38.567Z,19.60
2022-12-13T16:06:41.596Z,19.62
2022-12-13T16:11:48.894Z,19.60
2022-12-13T16:16:53.053Z,19.64
2022-12-13T16:21:56.003Z,19.65
2022-12-13T16:26:58.776Z,19.69
2022-12-13T16:32:08.700Z,19.76
2022-12-13T16:37:25.438Z,19.79
2022-12-13T16:42:29.812Z,19.79
2022-12-13T16:47:44.506Z,19.83
2022-12-13T16:52:51.161Z,19.84
2022-12-13T16:57:58.844Z,19.85
2022-12-13T17:03:02.969Z,19.84
2022-12-13T17:08:05.913Z,19.94
2022-12-13T17:13:08.964Z,20.05
2022-12-13T17:18:13.252Z,20.12
2022-12-13T17:23:18.400Z,20.25
2022-12-13T17:28:21.438Z,20.28
2022-12-13T17:33:26.059Z,20.39
2022-12-13T17:38:29.307Z,20.41
2022-12-13T17:43:35.169Z,20.45
2022-12-13T17:48:41.096Z,20.50
2022-12-13T17:53:44.810Z,20.61
2022-12-13T17:58:47.663Z,20.72
2022-12-13T18:03:52.850Z,20.74
2022-12-13T18:08:55.624Z,20.83
2022-12-13T18:13:58.747Z,20.94
2022-12-13T18:19:03.023Z,20.96
2022-12-13T18:24:06.866Z,21.00
2022-12-13T18:29:09.656Z,21.00
2022-12-13T18:34:13.845Z,21.01
2022-12-13T18:39:17.307Z,21.08
2022-12-13T18:44:20.274Z,21.18
2022-12-13T18:49:24.439Z,21.20
2022-12-13T18:54:27.348Z,21.27
2022-12-13T18:59:30.163Z,21.35
2022-12-13T19:04:35.590Z,21.42
2022-12-13T19:09:38.496Z,21.44
2022-12-13T19:14:41.282Z,21.44
2022-12-13T19:19:45.399Z,21.39
2022-12-13T19:24:51.214Z,21.33
2022-12-13T19:29:53.989Z,21.29
2022-12-13T19:34:58.212Z,21.22
2022-12-13T19:40:00.966Z,21.18
2022-12-13T19:45:03.724Z,21.18
2022-12-13T19:50:08.523Z,21.13
2022-12-13T19:55:11.679Z,21.07
2022-12-13T20:00:15.456Z,21.08
2022-12-13T20:05:19.891Z,21.02
2022-12-13T20:10:22.685Z,20.97
2022-12-13T20:15:25.439Z,20.95
2022-12-13T20:20:47.222Z,20.97
2022-12-13T20:26:00.421Z,20.92
2022-12-13T20:31:05.503Z,20.89
2022-12-13T20:36:27.639Z,20.87
2022-12-13T20:41:31.538Z,20.81
2022-12-13T20:46:34.482Z,20.79
2022-12-13T20:51:39.781Z,20.79
2022-12-13T20:56:42.788Z,20.76
2022-12-13T21:01:48.796Z,20.76
2022-12-13T21:06:53.440Z,20.78
2022-12-13T21:11:56.198Z,20.78
2022-12-13T21:16:59.784Z,20.82
2022-12-13T21:22:04.003Z,20.84
2022-12-13T21:27:06.791Z,20.76
2022-12-13T21:32:09.572Z,20.76
2022-12-13T21:37:13.787Z,20.79
2022-12-13T21:42:16.567Z,20.82
2022-12-13T21:47:19.393Z,20.79
2022-12-13T21:52:23.558Z,20.84
2022-12-13T21:57:40.898Z,20.75
2022-12-13T22:02:43.726Z,20.66
2022-12-13T22:07:48.160Z,20.68
2022-12-13T22:12:50.988Z,20.65
2022-12-13T22:17:53.728Z,20.68
2022-12-13T22:22:57.928Z,20.63
2022-12-13T22:28:00.761Z,20.66
2022-12-13T22:33:03.585Z,20.63
2022-12-13T22:38:07.846Z,20.77
2022-12-13T22:43:12.930Z,20.81
2022-12-13T22:48:19.100Z,20.86
2022-12-13T22:53:23.257Z,20.95
2022-12-13T22:58:26.364Z,21.10
2022-12-13T23:03:31.216Z,21.18
2022-12-13T23:08:40.236Z,21.26
2022-12-13T23:13:48.252Z,21.27
2022-12-13T23:19:01.229Z,21.19
2022-12-13T23:24:15.068Z,21.09
2022-12-13T23:29:17.921Z,20.99
2022-12-13T23:34:21.265Z,20.86
2022-12-13T23:39:25.419Z,20.86
2022-12-13T23:44:28.196Z,20.80
2022-12-13T23:49:30.979Z,20.69
2022-12-13T23:54:35.235Z,20.71
2022-12-13T23:59:38.016Z,20.69
